createdAt,value
2023-03-07T00:00:26.701Z,6.70
2023-03-07T00:03:14.396Z,4.72
2023-03-07T00:05:41.697Z,6.65
2023-03-07T00:08:09.767Z,3.88
2023-03-07T00:10:37.156Z,6.47
2023-03-07T00:13:04.807Z,3.95
2023-03-07T00:15:32.440Z,4.28
2023-03-07T00:18:00.294Z,4.20
2023-03-07T00:20:27.606Z,5.88
2023-03-07T00:22:55.185Z,7.97
2023-03-07T00:25:22.549Z,5.53
2023-03-07T00:27:50.133Z,8.10
2023-03-07T00:30:17.556Z,3.78
2023-03-07T00:32:45.201Z,7.20
2023-03-07T00:35:12.441Z,7.80
2023-03-07T00:37:40.037Z,6.97
2023-03-07T00:40:09.341Z,5.00
2023-03-07T00:42:36.915Z,7.15
2023-03-07T00:45:04.434Z,7.32
2023-03-07T00:47:32.045Z,6.30
2023-03-07T00:49:59.367Z,7.18
2023-03-07T00:52:26.931Z,7.45
2023-03-07T00:54:54.172Z,7.75
2023-03-07T00:57:21.786Z,7.60
2023-03-07T00:59:49.117Z,7.45
2023-03-07T01:02:16.671Z,7.63
2023-03-07T01:04:43.961Z,7.25
2023-03-07T01:07:11.526Z,8.55
2023-03-07T01:09:38.860Z,8.15
2023-03-07T01:12:07.314Z,7.15
2023-03-07T01:14:34.629Z,7.25
2023-03-07T01:17:02.473Z,7.45
2023-03-07T01:19:29.731Z,9.52
2023-03-07T01:21:57.281Z,6.97
2023-03-07T01:24:24.533Z,7.72
2023-03-07T01:26:52.151Z,7.90
2023-03-07T01:29:19.511Z,8.13
2023-03-07T01:31:47.133Z,8.68
2023-03-07T01:34:14.516Z,7.68
2023-03-07T01:36:42.186Z,10.88
2023-03-07T01:39:14.238Z,7.95
2023-03-07T01:41:42.764Z,7.13
2023-03-07T01:44:17.380Z,8.18
2023-03-07T01:46:44.994Z,10.05
2023-03-07T01:49:15.849Z,11.07
2023-03-07T01:51:45.752Z,5.65
2023-03-07T01:54:14.159Z,11.07
2023-03-07T01:56:42.117Z,8.35
2023-03-07T01:59:09.481Z,12.05
2023-03-07T02:01:37.660Z,4.28
2023-03-07T02:04:41.126Z,8.18
2023-03-07T02:07:10.449Z,8.93
2023-03-07T02:09:37.954Z,10.38
2023-03-07T02:12:05.676Z,5.57
2023-03-07T02:14:32.952Z,6.88
2023-03-07T02:17:01.439Z,7.45
2023-03-07T02:19:31.626Z,8.05
2023-03-07T02:22:10.361Z,12.00
2023-03-07T02:24:40.672Z,10.60
2023-03-07T02:27:08.352Z,9.70
2023-03-07T02:29:35.637Z,9.77
2023-03-07T02:32:04.443Z,12.32
2023-03-07T02:34:32.049Z,10.32
2023-03-07T02:37:01.896Z,9.30
2023-03-07T02:39:30.502Z,10.60
2023-03-07T02:42:03.955Z,10.25
2023-03-07T02:46:58.723Z,12.07
2023-03-07T02:49:26.017Z,10.25
2023-03-07T02:51:57.660Z,10.35
2023-03-07T02:54:25.261Z,10.27
2023-03-07T02:56:53.707Z,9.60
2023-03-07T02:59:21.140Z,10.90
2023-03-07T03:01:48.768Z,9.65
2023-03-07T03:04:16.226Z,9.80
2023-03-07T03:06:43.947Z,10.27
2023-03-07T03:09:11.471Z,9.63
2023-03-07T03:11:39.148Z,9.85
2023-03-07T03:14:06.472Z,8.98
2023-03-07T03:16:34.271Z,5.78
2023-03-07T03:19:08.588Z,8.88
2023-03-07T03:21:36.168Z,8.20
2023-03-07T03:24:07.389Z,8.98
2023-03-07T03:26:35.542Z,8.25
2023-03-07T03:29:03.379Z,8.20
2023-03-07T03:31:30.995Z,7.60
2023-03-07T03:33:58.889Z,8.82
2023-03-07T03:36:26.962Z,8.73
2023-03-07T03:38:55.140Z,7.43
2023-03-07T03:41:23.028Z,8.38
2023-03-07T03:43:50.326Z,8.43
2023-03-07T03:46:19.601Z,7.72
2023-03-07T03:48:54.033Z,9.45
2023-03-07T03:51:22.183Z,8.20
2023-03-07T03:53:49.926Z,6.07
2023-03-07T03:56:20.235Z,8.25
2023-03-07T03:58:52.192Z,6.68
2023-03-07T04:01:21.714Z,7.55
2023-03-07T04:03:51.313Z,6.88
2023-03-07T04:06:23.465Z,9.35
2023-03-07T04:08:51.343Z,6.60
2023-03-07T04:11:19.234Z,6.88
2023-03-07T04:13:46.561Z,6.13
2023-03-07T04:16:14.321Z,8.65
2023-03-07T04:18:42.558Z,4.90
2023-03-07T04:21:13.597Z,8.18
2023-03-07T04:23:40.929Z,8.45
2023-03-07T04:26:09.810Z,8.73
2023-03-07T04:28:44.931Z,7.35
2023-03-07T04:31:19.979Z,5.50
2023-03-07T04:33:47.730Z,5.63
2023-03-07T04:36:16.288Z,6.45
2023-03-07T04:38:43.970Z,6.40
2023-03-07T04:41:16.716Z,5.55
2023-03-07T04:43:44.090Z,7.68
2023-03-07T04:46:12.846Z,7.07
2023-03-07T04:48:40.144Z,6.55
2023-03-07T04:51:07.802Z,5.35
2023-03-07T04:53:35.187Z,9.23
2023-03-07T04:56:04.073Z,9.02
2023-03-07T04:58:32.140Z,8.88
2023-03-07T05:01:01.133Z,9.50
2023-03-07T05:03:28.664Z,8.32
2023-03-07T05:05:56.578Z,9.93
2023-03-07T05:08:24.098Z,10.43
2023-03-07T05:10:51.735Z,10.70
2023-03-07T05:13:19.008Z,9.27
2023-03-07T05:15:54.317Z,10.30
2023-03-07T05:18:22.347Z,10.05
2023-03-07T05:20:50.493Z,11.43
2023-03-07T05:23:18.761Z,11.63
2023-03-07T05:25:49.926Z,10.00
2023-03-07T05:28:17.310Z,12.38
2023-03-07T05:30:45.680Z,9.15
2023-03-07T05:33:13.132Z,12.55
2023-03-07T05:35:40.747Z,13.30
2023-03-07T05:38:08.248Z,11.52
2023-03-07T05:40:36.160Z,11.80
2023-03-07T05:43:03.660Z,12.77
2023-03-07T05:45:31.411Z,12.98
2023-03-07T05:47:58.785Z,10.65
2023-03-07T05:50:26.523Z,12.73
2023-03-07T05:52:53.805Z,11.15
2023-03-07T05:55:21.413Z,12.50
2023-03-07T05:57:48.707Z,12.77
2023-03-07T06:00:16.509Z,11.95
2023-03-07T06:02:43.891Z,11.38
2023-03-07T06:05:11.553Z,12.85
2023-03-07T06:07:38.852Z,11.48
2023-03-07T06:10:07.585Z,12.15
2023-03-07T06:12:35.084Z,10.65
2023-03-07T06:15:03.340Z,9.80
2023-03-07T06:17:30.650Z,11.10
2023-03-07T06:19:58.220Z,11.07
2023-03-07T06:22:25.553Z,12.95
2023-03-07T06:24:54.991Z,9.35
2023-03-07T06:27:22.260Z,11.38
2023-03-07T06:29:49.840Z,11.23
2023-03-07T06:32:17.299Z,11.98
2023-03-07T06:34:44.943Z,11.60
2023-03-07T06:37:12.274Z,12.85
2023-03-07T06:39:39.532Z,11.68
2023-03-07T06:42:06.896Z,12.80
2023-03-07T06:44:34.480Z,11.98
2023-03-07T06:47:01.821Z,10.75
2023-03-07T06:49:29.405Z,10.57
2023-03-07T06:51:56.773Z,10.25
2023-03-07T06:54:24.485Z,10.35
2023-03-07T06:56:51.782Z,10.60
2023-03-07T06:59:19.724Z,9.45
2023-03-07T07:01:48.657Z,10.27
2023-03-07T07:04:16.352Z,11.32
2023-03-07T07:06:43.703Z,10.63
2023-03-07T07:09:13.992Z,12.23
2023-03-07T07:11:41.373Z,12.07
2023-03-07T07:14:09.031Z,11.93
2023-03-07T07:16:36.478Z,11.02
2023-03-07T07:19:04.539Z,13.25
2023-03-07T07:21:31.808Z,13.63
2023-03-07T07:23:59.513Z,11.10
2023-03-07T07:26:27.026Z,14.55
2023-03-07T07:28:54.666Z,14.48
2023-03-07T07:31:22.008Z,11.35
2023-03-07T07:33:49.611Z,14.57
2023-03-07T07:36:16.940Z,12.40
2023-03-07T07:38:44.561Z,12.50
2023-03-07T07:41:11.980Z,12.05
2023-03-07T07:43:39.535Z,10.02
2023-03-07T07:46:07.080Z,12.93
2023-03-07T07:48:34.713Z,9.75
2023-03-07T07:51:02.778Z,9.57
2023-03-07T07:53:30.528Z,11.45
2023-03-07T07:55:58.065Z,9.82
2023-03-07T07:58:25.901Z,7.85
2023-03-07T08:00:53.225Z,10.45
2023-03-07T08:03:20.961Z,9.10
2023-03-07T08:05:48.813Z,8.23
2023-03-07T08:08:17.040Z,9.38
2023-03-07T08:10:46.856Z,9.35
2023-03-07T08:13:15.173Z,8.85
2023-03-07T08:15:42.706Z,11.63
2023-03-07T08:18:10.925Z,9.60
2023-03-07T08:20:39.601Z,10.57
2023-03-07T08:23:07.165Z,12.55
2023-03-07T08:25:34.420Z,12.70
2023-03-07T08:28:05.352Z,11.07
2023-03-07T08:30:34.140Z,11.15
2023-03-07T08:33:02.008Z,11.52
2023-03-07T08:35:29.646Z,11.27
2023-03-07T08:38:01.136Z,9.68
2023-03-07T08:40:31.884Z,9.65
2023-03-07T08:42:59.887Z,10.27
2023-03-07T08:45:27.266Z,10.02
2023-03-07T08:47:57.778Z,10.38
2023-03-07T08:50:27.149Z,9.73
2023-03-07T08:52:54.813Z,10.38
2023-03-07T08:55:22.090Z,10.88
2023-03-07T08:57:49.751Z,9.05
2023-03-07T09:00:17.909Z,9.02
2023-03-07T09:02:45.572Z,10.52
2023-03-07T09:05:12.877Z,8.07
2023-03-07T09:07:40.507Z,11.35
2023-03-07T09:10:07.961Z,10.48
2023-03-07T09:12:36.082Z,12.18
2023-03-07T09:15:03.619Z,12.60
2023-03-07T09:17:31.204Z,9.77
2023-03-07T09:19:58.576Z,10.82
2023-03-07T09:22:27.452Z,12.93
2023-03-07T09:24:55.005Z,12.50
2023-03-07T09:27:22.608Z,14.13
2023-03-07T09:29:49.864Z,10.90
2023-03-07T09:32:17.501Z,13.98
2023-03-07T09:34:44.851Z,14.32
2023-03-07T09:37:12.556Z,12.15
2023-03-07T09:39:39.984Z,13.32
2023-03-07T09:42:07.779Z,15.63
2023-03-07T09:44:40.574Z,15.68
2023-03-07T09:47:32.273Z,13.93
2023-03-07T09:50:01.480Z,15.60
2023-03-07T09:52:33.392Z,13.57
2023-03-07T09:55:01.848Z,15.35
2023-03-07T09:57:29.421Z,13.07
2023-03-07T10:00:01.127Z,16.30
2023-03-07T10:02:47.724Z,13.65
2023-03-07T10:05:27.076Z,15.77
2023-03-07T10:07:55.463Z,18.45
2023-03-07T10:10:27.980Z,16.02
2023-03-07T10:13:15.808Z,20.55
2023-03-07T10:15:47.797Z,18.25
2023-03-07T10:18:24.457Z,19.95
2023-03-07T10:20:57.192Z,16.88
2023-03-07T10:23:28.984Z,17.52
2023-03-07T10:26:19.088Z,19.95
2023-03-07T10:28:47.332Z,19.77
2023-03-07T10:31:21.910Z,24.00
2023-03-07T10:33:50.873Z,20.80
2023-03-07T10:36:28.733Z,19.23
2023-03-07T10:39:05.111Z,18.92
2023-03-07T10:41:32.441Z,20.58
2023-03-07T10:44:00.073Z,22.10
2023-03-07T10:46:33.064Z,20.13
2023-03-07T10:49:15.526Z,22.67
2023-03-07T10:52:29.204Z,20.48
2023-03-07T10:55:16.712Z,21.52
2023-03-07T10:57:44.046Z,19.27
2023-03-07T11:00:18.513Z,18.58
2023-03-07T11:02:46.934Z,16.70
2023-03-07T11:05:36.646Z,19.63
2023-03-07T11:08:24.359Z,18.05
2023-03-07T11:10:51.948Z,17.25
2023-03-07T11:13:20.877Z,17.35
2023-03-07T11:15:49.208Z,15.20
2023-03-07T11:18:30.897Z,17.75
2023-03-07T11:20:59.410Z,17.77
2023-03-07T11:23:30.674Z,16.98
2023-03-07T11:26:14.018Z,16.08
2023-03-07T11:28:41.593Z,18.95
2023-03-07T11:31:14.956Z,16.40
2023-03-07T11:33:56.778Z,19.00
2023-03-07T11:36:32.862Z,20.83
2023-03-07T11:39:06.837Z,19.15
2023-03-07T11:41:38.172Z,18.70
2023-03-07T11:44:27.196Z,17.50
2023-03-07T11:47:13.643Z,20.63
2023-03-07T11:49:46.385Z,19.00
2023-03-07T11:52:32.726Z,23.35
2023-03-07T11:55:03.179Z,18.55
2023-03-07T11:57:43.172Z,20.77
2023-03-07T12:00:23.469Z,20.33
2023-03-07T12:03:21.981Z,17.20
2023-03-07T12:06:07.326Z,18.63
2023-03-07T12:08:50.117Z,21.45
2023-03-07T12:11:23.154Z,18.20
2023-03-07T12:16:27.558Z,15.95
2023-03-07T12:18:56.594Z,19.23
2023-03-07T12:22:01.079Z,21.67
2023-03-07T12:24:31.430Z,18.50
2023-03-07T12:27:01.366Z,18.80
2023-03-07T12:29:34.974Z,22.17
2023-03-07T12:34:37.519Z,19.55
2023-03-07T12:37:04.751Z,18.90
2023-03-07T12:39:47.541Z,17.30
2023-03-07T12:42:19.800Z,15.85
2023-03-07T12:44:56.936Z,16.10
2023-03-07T12:47:33.880Z,16.80
2023-03-07T12:50:10.440Z,16.52
2023-03-07T12:52:42.276Z,21.75
2023-03-07T12:55:48.296Z,17.30
2023-03-07T12:58:15.602Z,16.25
2023-03-07T13:00:51.041Z,12.90
2023-03-07T13:03:31.570Z,13.55
2023-03-07T13:05:59.285Z,17.30
2023-03-07T13:08:27.514Z,14.85
2023-03-07T13:10:55.321Z,14.90
2023-03-07T13:13:41.479Z,12.63
2023-03-07T13:16:12.750Z,10.80
2023-03-07T13:18:40.327Z,13.98
2023-03-07T13:21:12.054Z,10.77
2023-03-07T13:23:39.418Z,11.25
2023-03-07T13:26:10.932Z,12.02
2023-03-07T13:28:42.494Z,15.57
2023-03-07T13:31:15.875Z,10.70
2023-03-07T13:33:43.384Z,9.77
2023-03-07T13:36:38.805Z,12.05
2023-03-07T13:39:24.920Z,10.68
2023-03-07T13:41:52.748Z,11.60
2023-03-07T13:44:32.314Z,10.18
2023-03-07T13:47:02.582Z,8.65
2023-03-07T13:49:36.902Z,8.38
2023-03-07T13:52:17.860Z,8.85
2023-03-07T13:54:47.748Z,10.55
2023-03-07T13:57:19.380Z,9.27
2023-03-07T13:59:52.527Z,8.95
2023-03-07T14:02:21.601Z,8.77
2023-03-07T14:04:54.286Z,7.78
2023-03-07T14:07:34.033Z,9.77
2023-03-07T14:10:21.789Z,8.07
2023-03-07T14:13:05.722Z,8.75
2023-03-07T14:15:36.678Z,8.90
2023-03-07T14:18:23.200Z,8.98
2023-03-07T14:21:08.166Z,8.55
2023-03-07T14:23:54.016Z,7.78
2023-03-07T14:26:38.764Z,8.80
2023-03-07T14:29:22.022Z,6.82
2023-03-07T14:31:59.357Z,9.15
2023-03-07T14:34:36.576Z,8.95
2023-03-07T14:37:07.159Z,6.75
2023-03-07T14:39:58.571Z,7.07
2023-03-07T14:42:31.975Z,10.00
2023-03-07T14:45:18.308Z,8.07
2023-03-07T14:48:08.340Z,8.88
2023-03-07T14:50:39.865Z,6.72
2023-03-07T14:53:24.246Z,7.88
2023-03-07T14:55:53.907Z,9.52
2023-03-07T14:58:32.379Z,8.05
2023-03-07T15:00:59.952Z,7.10
2023-03-07T15:03:27.827Z,8.70
2023-03-07T15:06:00.923Z,8.50
2023-03-07T15:08:34.749Z,7.85
2023-03-07T15:11:05.293Z,7.53
2023-03-07T15:13:35.660Z,6.55
2023-03-07T15:16:06.693Z,5.82
2023-03-07T15:18:35.741Z,6.90
2023-03-07T15:21:04.629Z,7.20
2023-03-07T15:23:32.179Z,8.68
2023-03-07T15:26:05.219Z,8.00
2023-03-07T15:28:38.000Z,8.23
2023-03-07T15:31:05.755Z,6.22
2023-03-07T15:33:33.699Z,7.45
2023-03-07T15:36:07.478Z,7.07
2023-03-07T15:38:35.178Z,7.53
2023-03-07T15:41:02.773Z,6.72
2023-03-07T15:43:35.384Z,8.90
2023-03-07T15:46:07.505Z,8.57
2023-03-07T15:48:39.139Z,9.50
2023-03-07T15:51:13.762Z,8.13
2023-03-07T15:53:41.963Z,6.60
2023-03-07T15:56:22.908Z,8.57
2023-03-07T15:58:50.736Z,9.63
2023-03-07T16:01:18.315Z,6.00
2023-03-07T16:04:04.391Z,6.68
2023-03-07T16:06:34.438Z,9.50
2023-03-07T16:09:02.789Z,8.43
2023-03-07T16:11:30.925Z,6.10
2023-03-07T16:13:58.219Z,7.00
2023-03-07T16:16:30.070Z,6.60
2023-03-07T16:18:58.357Z,6.90
2023-03-07T16:21:26.125Z,7.97
2023-03-07T16:23:53.583Z,7.38
2023-03-07T16:26:22.430Z,6.93
2023-03-07T16:28:50.582Z,7.72
2023-03-07T16:31:18.707Z,6.65
2023-03-07T16:33:46.466Z,6.93
2023-03-07T16:36:14.804Z,6.43
2023-03-07T16:38:42.433Z,6.05
2023-03-07T16:41:20.627Z,6.93
2023-03-07T16:43:56.295Z,7.00
2023-03-07T16:46:24.514Z,5.90
2023-03-07T16:48:51.961Z,5.65
2023-03-07T16:51:22.144Z,5.20
2023-03-07T16:53:50.523Z,4.80
2023-03-07T16:56:26.301Z,5.32
2023-03-07T16:58:53.884Z,5.47
2023-03-07T17:01:21.534Z,4.90
2023-03-07T17:03:49.018Z,6.53
2023-03-07T17:06:17.360Z,6.20
2023-03-07T17:08:45.411Z,5.15
2023-03-07T17:11:31.412Z,5.50
2023-03-07T17:14:02.699Z,5.63
2023-03-07T17:16:31.643Z,6.72
2023-03-07T17:18:58.954Z,6.22
2023-03-07T17:21:26.609Z,5.75
2023-03-07T17:23:53.996Z,7.32
2023-03-07T17:26:27.731Z,4.35
2023-03-07T17:28:55.777Z,2.85
2023-03-07T17:31:23.432Z,5.80
2023-03-07T17:33:51.098Z,2.33
2023-03-07T17:36:19.196Z,3.55
2023-03-07T17:38:46.508Z,0.52
2023-03-07T17:41:14.080Z,1.65
2023-03-07T17:43:41.441Z,0.77
2023-03-07T17:46:10.191Z,0.60
2023-03-07T17:48:37.625Z,0.52
2023-03-07T17:51:11.769Z,0.40
2023-03-07T17:53:39.514Z,0.60
2023-03-07T17:56:10.520Z,0.77
2023-03-07T17:58:40.724Z,0.93
2023-03-07T18:01:08.828Z,1.13
2023-03-07T18:03:36.283Z,1.67
2023-03-07T18:06:04.427Z,1.80
2023-03-07T18:08:31.870Z,2.58
2023-03-07T18:11:06.362Z,1.65
2023-03-07T18:13:33.846Z,2.00
2023-03-07T18:16:01.990Z,1.73
2023-03-07T18:18:33.306Z,2.72
2023-03-07T18:21:02.332Z,1.58
2023-03-07T18:23:29.793Z,2.85
2023-03-07T18:26:03.109Z,2.47
2023-03-07T18:28:31.193Z,2.38
2023-03-07T18:30:59.387Z,3.25
2023-03-07T18:33:28.366Z,2.20
2023-03-07T18:35:56.741Z,3.83
2023-03-07T18:38:24.703Z,2.97
2023-03-07T18:40:55.470Z,3.15
2023-03-07T18:43:22.855Z,3.25
2023-03-07T18:45:50.807Z,3.00
2023-03-07T18:48:18.166Z,1.80
2023-03-07T18:50:45.809Z,1.33
2023-03-07T18:53:13.191Z,2.97
2023-03-07T18:55:40.950Z,1.25
2023-03-07T18:58:08.460Z,1.40
2023-03-07T19:00:36.112Z,1.85
2023-03-07T19:03:03.598Z,2.17
2023-03-07T19:05:31.798Z,3.22
2023-03-07T19:07:59.304Z,2.78
2023-03-07T19:10:27.054Z,2.28
2023-03-07T19:12:54.469Z,3.63
2023-03-07T19:15:22.528Z,3.65
2023-03-07T19:17:49.911Z,3.22
2023-03-07T19:20:17.810Z,2.97
2023-03-07T19:22:45.596Z,3.97
2023-03-07T19:25:13.522Z,2.20
2023-03-07T19:27:40.980Z,2.97
2023-03-07T19:30:11.225Z,2.65
2023-03-07T19:32:38.926Z,2.20
2023-03-07T19:35:07.088Z,2.83
2023-03-07T19:37:36.615Z,3.28
2023-03-07T19:40:04.699Z,2.65
2023-03-07T19:42:32.050Z,3.10
2023-03-07T19:44:59.588Z,3.00
2023-03-07T19:47:26.874Z,2.42
2023-03-07T19:49:54.416Z,4.07
2023-03-07T19:52:21.804Z,4.05
2023-03-07T19:54:53.162Z,3.35
2023-03-07T19:57:20.659Z,3.88
2023-03-07T19:59:52.747Z,2.40
2023-03-07T20:02:20.654Z,2.30
2023-03-07T20:04:48.535Z,3.05
2023-03-07T20:07:16.520Z,2.35
2023-03-07T20:09:44.139Z,4.65
2023-03-07T20:12:11.531Z,4.15
2023-03-07T20:14:42.854Z,3.00
2023-03-07T20:17:11.477Z,2.35
2023-03-07T20:19:39.257Z,1.67
2023-03-07T20:22:06.870Z,1.95
2023-03-07T20:24:36.277Z,1.98
2023-03-07T20:27:03.807Z,1.70
2023-03-07T20:29:31.389Z,0.93
2023-03-07T20:31:58.836Z,1.25
2023-03-07T20:34:26.968Z,1.95
2023-03-07T20:36:57.453Z,1.02
2023-03-07T20:39:25.267Z,1.75
2023-03-07T20:41:52.697Z,1.33
2023-03-07T20:44:20.423Z,1.30
2023-03-07T20:46:47.775Z,1.20
2023-03-07T20:49:16.072Z,1.67
2023-03-07T20:51:43.557Z,1.33
2023-03-07T20:54:13.122Z,1.60
2023-03-07T20:56:41.045Z,1.65
2023-03-07T20:59:09.346Z,1.00
2023-03-07T21:01:36.862Z,2.28
2023-03-07T21:04:08.114Z,1.75
2023-03-07T21:06:36.823Z,1.58
2023-03-07T21:09:09.919Z,1.50
2023-03-07T21:11:38.524Z,1.45
2023-03-07T21:14:06.493Z,1.80
2023-03-07T21:16:33.928Z,1.58
2023-03-07T21:19:02.622Z,1.52
2023-03-07T21:21:30.484Z,1.92
2023-03-07T21:23:58.760Z,1.42
2023-03-07T21:26:27.240Z,1.67
2023-03-07T21:28:56.631Z,4.40
2023-03-07T21:31:25.256Z,1.30
2023-03-07T21:33:54.274Z,0.90
2023-03-07T21:36:22.033Z,2.10
2023-03-07T21:38:49.941Z,2.42
2023-03-07T21:41:19.129Z,2.15
2023-03-07T21:43:46.978Z,1.65
2023-03-07T21:46:14.841Z,1.38
2023-03-07T21:48:42.735Z,1.75
2023-03-07T21:51:10.075Z,1.70
2023-03-07T21:53:37.994Z,2.40
2023-03-07T21:56:07.723Z,1.73
2023-03-07T21:58:35.682Z,1.80
2023-03-07T22:01:09.652Z,1.13
2023-03-07T22:03:37.241Z,1.63
2023-03-07T22:06:12.281Z,1.55
2023-03-07T22:08:40.215Z,2.40
2023-03-07T22:11:08.339Z,2.33
2023-03-07T22:13:36.923Z,1.38
2023-03-07T22:16:07.326Z,1.38
2023-03-07T22:18:35.683Z,1.15
2023-03-07T22:21:11.487Z,1.05
2023-03-07T22:23:39.151Z,2.42
2023-03-07T22:26:07.189Z,1.85
2023-03-07T22:28:34.891Z,2.30
2023-03-07T22:31:02.859Z,1.90
2023-03-07T22:33:30.716Z,1.23
2023-03-07T22:36:02.023Z,1.20
2023-03-07T22:38:29.749Z,1.35
2023-03-07T22:41:07.377Z,1.60
2023-03-07T22:43:35.829Z,1.80
2023-03-07T22:46:03.398Z,1.30
2023-03-07T22:48:31.408Z,1.13
2023-03-07T22:50:59.031Z,0.80
2023-03-07T22:53:33.298Z,2.35
2023-03-07T22:56:01.037Z,1.00
2023-03-07T22:58:29.382Z,3.45
2023-03-07T23:00:56.830Z,1.45
2023-03-07T23:03:24.624Z,1.48
2023-03-07T23:05:52.003Z,1.90
2023-03-07T23:08:20.476Z,0.82
2023-03-07T23:10:47.788Z,1.40
2023-03-07T23:13:17.110Z,1.00
2023-03-07T23:15:44.680Z,1.83
2023-03-07T23:18:12.366Z,1.38
2023-03-07T23:20:39.671Z,1.30
2023-03-07T23:23:07.305Z,1.25
2023-03-07T23:25:34.677Z,1.55
2023-03-07T23:28:02.385Z,0.50
2023-03-07T23:30:29.746Z,1.33
2023-03-07T23:32:57.614Z,0.82
2023-03-07T23:35:24.924Z,1.33
2023-03-07T23:37:52.518Z,1.67
2023-03-07T23:40:21.433Z,1.85
2023-03-07T23:42:49.038Z,1.30
2023-03-07T23:45:16.624Z,0.85
2023-03-07T23:47:44.218Z,0.90
2023-03-07T23:50:11.773Z,0.82
2023-03-07T23:52:39.391Z,2.17
2023-03-07T23:55:10.466Z,0.88
2023-03-07T23:57:39.039Z,0.90
